Aviation Digital Data Service (ADDS)

Output produced by METARs form (1126 UTC 17 June 2019)
found at http://www.aviationweather.gov/metar/data/
 
METAR text: HAAB 171100Z 16008KT 99999 SCT025 20/11 Q1027
Conditions at: HAAB (ADDIS ABABA/BOLE, ET) observed 1100 UTC 17 June 2019
Temperature: 20.0°C (68°F)
Dewpoint: 11.0°C (52°F) [RH = 56%]
Pressure (altimeter): 30.32 inches Hg (1027.0 mb)
Winds: from the SSE (160 degrees) at 9 MPH (8 knots; 4.1 m/s)
Visibility: 6 or more miles (10+ km)
Ceiling: at least 12,000 feet AGL
Clouds: scattered clouds at 2500 feet AGL
Weather: no significant weather observed at this time

METAR text: HAAB 171000Z 18010KT 99999 SCT025 20/10 Q1028
Conditions at: HAAB (ADDIS ABABA/BOLE, ET) observed 1000 UTC 17 June 2019
Temperature: 20.0°C (68°F)
Dewpoint: 10.0°C (50°F) [RH = 53%]
Pressure (altimeter): 30.35 inches Hg (1028.0 mb)
Winds: from the S (180 degrees) at 12 MPH (10 knots; 5.1 m/s)
Visibility: 6 or more miles (10+ km)
Ceiling: at least 12,000 feet AGL
Clouds: scattered clouds at 2500 feet AGL
Weather: no significant weather observed at this time

METAR text: HAAB 170800Z 18008KT 99999 BKN025 20/11 Q1029
Conditions at: HAAB (ADDIS ABABA/BOLE, ET) observed 0800 UTC 17 June 2019
Temperature: 20.0°C (68°F)
Dewpoint: 11.0°C (52°F) [RH = 56%]
Pressure (altimeter): 30.38 inches Hg (1029.0 mb)
Winds: from the S (180 degrees) at 9 MPH (8 knots; 4.1 m/s)
Visibility: 6 or more miles (10+ km)
Ceiling: 2500 feet AGL
Clouds: broken clouds at 2500 feet AGL
Weather: no significant weather observed at this time

METAR text: HAAB 170700Z 28006KT 99999 BKN025 18/10 Q1029
Conditions at: HAAB (ADDIS ABABA/BOLE, ET) observed 0700 UTC 17 June 2019
Temperature: 18.0°C (64°F)
Dewpoint: 10.0°C (50°F) [RH = 59%]
Pressure (altimeter): 30.38 inches Hg (1029.0 mb)
Winds: from the W (280 degrees) at 7 MPH (6 knots; 3.1 m/s)
Visibility: 6 or more miles (10+ km)
Ceiling: 2500 feet AGL
Clouds: broken clouds at 2500 feet AGL
Weather: no significant weather observed at this time

METAR text: HAAB 170600Z 30010KT 99999 BKN025 15/10 Q1029
Conditions at: HAAB (ADDIS ABABA/BOLE, ET) observed 0600 UTC 17 June 2019
Temperature: 15.0°C (59°F)
Dewpoint: 10.0°C (50°F) [RH = 72%]
Pressure (altimeter): 30.38 inches Hg (1029.0 mb)
Winds: from the WNW (300 degrees) at 12 MPH (10 knots; 5.1 m/s)
Visibility: 6 or more miles (10+ km)
Ceiling: 2500 feet AGL
Clouds: broken clouds at 2500 feet AGL
Weather: no significant weather observed at this time

METAR text: HAAB 170500Z 28006KT 99999 BKN022 SCT070 14/11 Q1030
Conditions at: HAAB (ADDIS ABABA/BOLE, ET) observed 0500 UTC 17 June 2019
Temperature: 14.0°C (57°F)
Dewpoint: 11.0°C (52°F) [RH = 82%]
Pressure (altimeter): 30.41 inches Hg (1030.0 mb)
Winds: from the W (280 degrees) at 7 MPH (6 knots; 3.1 m/s)
Visibility: 6 or more miles (10+ km)
Ceiling: 2200 feet AGL
Clouds: broken clouds at 2200 feet AGL
scattered clouds at 7000 feet AGL
Weather: no significant weather observed at this time

METAR text: HAAB 170400Z 32006KT 9000 15RA BKN022 BKN070 12/11 Q1029
Conditions at: HAAB (ADDIS ABABA/BOLE, ET) observed 0400 UTC 17 June 2019
Temperature: 12.0°C (54°F)
Dewpoint: 11.0°C (52°F) [RH = 94%]
Pressure (altimeter): 30.38 inches Hg (1029.0 mb)
Winds: from the NW (320 degrees) at 7 MPH (6 knots; 3.1 m/s)
Visibility: 6 miles ( 9 km)
Ceiling: 2200 feet AGL
Clouds: broken clouds at 2200 feet AGL
broken clouds at 7000 feet AGL
Weather: RA  (moderate rain)

METAR text: HAAB 170200Z 05014KT 4000 TSRA FEW023CB BKN025 OVC070 13/11 Q1028
Conditions at: HAAB (ADDIS ABABA/BOLE, ET) observed 0200 UTC 17 June 2019
Temperature: 13.0°C (55°F)
Dewpoint: 11.0°C (52°F) [RH = 88%]
Pressure (altimeter): 30.35 inches Hg (1028.0 mb)
Winds: from the NE (50 degrees) at 16 MPH (14 knots; 7.2 m/s)
Visibility: 2.49 miles (4.01 km)
Ceiling: 2500 feet AGL
Clouds: few clouds at 2300 feet AGL
broken clouds at 2500 feet AGL
overcast cloud deck at 7000 feet AGL
Weather: TSRA  (rain associated with thunderstorm(s))

METAR text: HAAB 170100Z 32002KT 9999 BKN025 15/13 Q1027
Conditions at: HAAB (ADDIS ABABA/BOLE, ET) observed 0100 UTC 17 June 2019
Temperature: 15.0°C (59°F)
Dewpoint: 13.0°C (55°F) [RH = 88%]
Pressure (altimeter): 30.32 inches Hg (1027.0 mb)
Winds: from the NW (320 degrees) at 2 MPH (2 knots; 1.0 m/s)
Visibility: 6 or more miles (10+ km)
Ceiling: 2500 feet AGL
Clouds: broken clouds at 2500 feet AGL
Weather: no significant weather observed at this time

METAR text: HAAB 170000Z 04002KT 9999 BKN025 15/13 Q1026
Conditions at: HAAB (ADDIS ABABA/BOLE, ET) observed 0000 UTC 17 June 2019
Temperature: 15.0°C (59°F)
Dewpoint: 13.0°C (55°F) [RH = 88%]
Pressure (altimeter): 30.30 inches Hg (1026.0 mb)
Winds: from the NE (40 degrees) at 2 MPH (2 knots; 1.0 m/s)
Visibility: 6 or more miles (10+ km)
Ceiling: 2500 feet AGL
Clouds: broken clouds at 2500 feet AGL
Weather: no significant weather observed at this time

METAR text: HAAB 162300Z 01002KT 9999 BKN025 16/13 Q1026
Conditions at: HAAB (ADDIS ABABA/BOLE, ET) observed 2300 UTC 16 June 2019
Temperature: 16.0°C (61°F)
Dewpoint: 13.0°C (55°F) [RH = 82%]
Pressure (altimeter): 30.30 inches Hg (1026.0 mb)
Winds: from the N (10 degrees) at 2 MPH (2 knots; 1.0 m/s)
Visibility: 6 or more miles (10+ km)
Ceiling: 2500 feet AGL
Clouds: broken clouds at 2500 feet AGL
Weather: no significant weather observed at this time

METAR text: HAAB 161500Z 14006KT 9000 15RA FEW024CB BKN025 SCT080 21/13 Q1025
Conditions at: HAAB (ADDIS ABABA/BOLE, ET) observed 1500 UTC 16 June 2019
Temperature: 21.0°C (70°F)
Dewpoint: 13.0°C (55°F) [RH = 60%]
Pressure (altimeter): 30.27 inches Hg (1025.0 mb)
Winds: from the SE (140 degrees) at 7 MPH (6 knots; 3.1 m/s)
Visibility: 6 miles ( 9 km)
Ceiling: 2500 feet AGL
Clouds: few clouds at 2400 feet AGL
broken clouds at 2500 feet AGL
scattered clouds at 8000 feet AGL
Weather: RA  (moderate rain)

METAR text: HAAB 161400Z 12010KT 9000 15RA FEW023 CB BKN025 22/13 Q1024
Conditions at: HAAB (ADDIS ABABA/BOLE, ET) observed 1400 UTC 16 June 2019
Temperature: 22.0°C (72°F)
Dewpoint: 13.0°C (55°F) [RH = 57%]
Pressure (altimeter): 30.24 inches Hg (1024.0 mb)
Winds: from the ESE (120 degrees) at 12 MPH (10 knots; 5.1 m/s)
Visibility: 6 miles ( 9 km)
Ceiling: 2500 feet AGL
Clouds: few clouds at 2300 feet AGL
broken clouds at 2500 feet AGL
Weather: RA  (moderate rain)

METAR text: HAAB 161300Z 15010KT 9000 15RA FEW023 CB BKN025 23/13 Q1024
Conditions at: HAAB (ADDIS ABABA/BOLE, ET) observed 1300 UTC 16 June 2019
Temperature: 23.0°C (73°F)
Dewpoint: 13.0°C (55°F) [RH = 53%]
Pressure (altimeter): 30.24 inches Hg (1024.0 mb)
Winds: from the SSE (150 degrees) at 12 MPH (10 knots; 5.1 m/s)
Visibility: 6 miles ( 9 km)
Ceiling: 2500 feet AGL
Clouds: few clouds at 2300 feet AGL
broken clouds at 2500 feet AGL
Weather: RA  (moderate rain)

METAR text: HAAB 161200Z 14006KT 9999 BKN025 23/11 Q1024
Conditions at: HAAB (ADDIS ABABA/BOLE, ET) observed 1200 UTC 16 June 2019
Temperature: 23.0°C (73°F)
Dewpoint: 11.0°C (52°F) [RH = 47%]
Pressure (altimeter): 30.24 inches Hg (1024.0 mb)
Winds: from the SE (140 degrees) at 7 MPH (6 knots; 3.1 m/s)
Visibility: 6 or more miles (10+ km)
Ceiling: 2500 feet AGL
Clouds: broken clouds at 2500 feet AGL
Weather: no significant weather observed at this time

METAR text: HAAB 161000Z 11006KT 9999 BKN025 22/13 Q1026
Conditions at: HAAB (ADDIS ABABA/BOLE, ET) observed 1000 UTC 16 June 2019
Temperature: 22.0°C (72°F)
Dewpoint: 13.0°C (55°F) [RH = 57%]
Pressure (altimeter): 30.30 inches Hg (1026.0 mb)
Winds: from the ESE (110 degrees) at 7 MPH (6 knots; 3.1 m/s)
Visibility: 6 or more miles (10+ km)
Ceiling: 2500 feet AGL
Clouds: broken clouds at 2500 feet AGL
Weather: no significant weather observed at this time

METAR text: HAAB 160900Z 22006KT 9999 BKN025 21/13 Q1027
Conditions at: HAAB (ADDIS ABABA/BOLE, ET) observed 0900 UTC 16 June 2019
Temperature: 21.0°C (70°F)
Dewpoint: 13.0°C (55°F) [RH = 60%]
Pressure (altimeter): 30.32 inches Hg (1027.0 mb)
Winds: from the SW (220 degrees) at 7 MPH (6 knots; 3.1 m/s)
Visibility: 6 or more miles (10+ km)
Ceiling: 2500 feet AGL
Clouds: broken clouds at 2500 feet AGL
Weather: no significant weather observed at this time

METAR text: HAAB 160800Z 17008KT 9999 BKN025 20/14 Q1027
Conditions at: HAAB (ADDIS ABABA/BOLE, ET) observed 0800 UTC 16 June 2019
Temperature: 20.0°C (68°F)
Dewpoint: 14.0°C (57°F) [RH = 68%]
Pressure (altimeter): 30.32 inches Hg (1027.0 mb)
Winds: from the S (170 degrees) at 9 MPH (8 knots; 4.1 m/s)
Visibility: 6 or more miles (10+ km)
Ceiling: 2500 feet AGL
Clouds: broken clouds at 2500 feet AGL
Weather: no significant weather observed at this time

METAR text: HAAB 160700Z 17006KT 5000 BR FEW025 SCT070 20/14 Q1028
Conditions at: HAAB (ADDIS ABABA/BOLE, ET) observed 0700 UTC 16 June 2019
Temperature: 20.0°C (68°F)
Dewpoint: 14.0°C (57°F) [RH = 68%]
Pressure (altimeter): 30.35 inches Hg (1028.0 mb)
Winds: from the S (170 degrees) at 7 MPH (6 knots; 3.1 m/s)
Visibility: 3 miles ( 5 km)
Ceiling: at least 12,000 feet AGL
Clouds: few clouds at 2500 feet AGL
scattered clouds at 7000 feet AGL
Weather: BR  (mist)

METAR text: HAAB 160600Z 13003KT 5000 BR FEW025 SCT070 18/13 Q1028
Conditions at: HAAB (ADDIS ABABA/BOLE, ET) observed 0600 UTC 16 June 2019
Temperature: 18.0°C (64°F)
Dewpoint: 13.0°C (55°F) [RH = 73%]
Pressure (altimeter): 30.35 inches Hg (1028.0 mb)
Winds: from the SE (130 degrees) at 3 MPH (3 knots; 1.5 m/s)
Visibility: 3 miles ( 5 km)
Ceiling: at least 12,000 feet AGL
Clouds: few clouds at 2500 feet AGL
scattered clouds at 7000 feet AGL
Weather: BR  (mist)

METAR text: HAAB 160500Z 03002KT 9999 BKN025 15/13 Q1028
Conditions at: HAAB (ADDIS ABABA/BOLE, ET) observed 0500 UTC 16 June 2019
Temperature: 15.0°C (59°F)
Dewpoint: 13.0°C (55°F) [RH = 88%]
Pressure (altimeter): 30.35 inches Hg (1028.0 mb)
Winds: from the NNE (30 degrees) at 2 MPH (2 knots; 1.0 m/s)
Visibility: 6 or more miles (10+ km)
Ceiling: 2500 feet AGL
Clouds: broken clouds at 2500 feet AGL
Weather: no significant weather observed at this time

METAR text: HAAB 160300Z 00000KT 9999 BKN025 BKN070 13/12 Q1026
Conditions at: HAAB (ADDIS ABABA/BOLE, ET) observed 0300 UTC 16 June 2019
Temperature: 13.0°C (55°F)
Dewpoint: 12.0°C (54°F) [RH = 94%]
Pressure (altimeter): 30.30 inches Hg (1026.0 mb)
Winds: calm
Visibility: 6 or more miles (10+ km)
Ceiling: 2500 feet AGL
Clouds: broken clouds at 2500 feet AGL
broken clouds at 7000 feet AGL
Weather: no significant weather observed at this time

METAR text: HAAB 160200Z 29006KT 9999 SCT025 13/12 Q1026
Conditions at: HAAB (ADDIS ABABA/BOLE, ET) observed 0200 UTC 16 June 2019
Temperature: 13.0°C (55°F)
Dewpoint: 12.0°C (54°F) [RH = 94%]
Pressure (altimeter): 30.30 inches Hg (1026.0 mb)
Winds: from the WNW (290 degrees) at 7 MPH (6 knots; 3.1 m/s)
Visibility: 6 or more miles (10+ km)
Ceiling: at least 12,000 feet AGL
Clouds: scattered clouds at 2500 feet AGL
Weather: no significant weather observed at this time

METAR text: HAAB 160100Z 25004KT 9999 SCT025 13/12 Q1026
Conditions at: HAAB (ADDIS ABABA/BOLE, ET) observed 0100 UTC 16 June 2019
Temperature: 13.0°C (55°F)
Dewpoint: 12.0°C (54°F) [RH = 94%]
Pressure (altimeter): 30.30 inches Hg (1026.0 mb)
Winds: from the WSW (250 degrees) at 5 MPH (4 knots; 2.1 m/s)
Visibility: 6 or more miles (10+ km)
Ceiling: at least 12,000 feet AGL
Clouds: scattered clouds at 2500 feet AGL
Weather: no significant weather observed at this time

Forecast for: HAAB (ADDIS ABABA/BOLE, ET)
Text: TAF HAAB 170930Z 1712/1818 08005KT 9999 BKN020 BKN080
Forecast period: 1200 UTC 17 June 2019 to 1800 UTC 18 June 2019
Forecast type: FROM: standard forecast or significant change
Winds: from the E (80 degrees) at 6 MPH (5 knots; 2.6 m/s)
Visibility: 6 or more miles 10+ km)
Ceiling: 2000 feet AGL
Clouds: broken clouds at 2000 feet AGL
broken clouds at 8000 feet AGL
Weather: no significant weather forecast for this period
Text: BECMG 1712/1724 04005KT 8000 -SHRA BKN020
Forecast period: 1200 UTC 17 June 2019 to 0400 UTC 18 June 2019
Forecast type: BECOMING: Conditions expected to become as follows by 0000 UTC 18 June 2019
Winds: from the NE (40 degrees) at 6 MPH (5 knots; 2.6 m/s)
Visibility: 5 miles (8 km)
Ceiling: 2000 feet AGL
Clouds: broken clouds at 2000 feet AGL
Weather: -SHRA  (light rain showers)
Text: BECMG 1804/1824 34004KT 7000 -TSRA BKN020 0VC060
Forecast period: 0400 to 1800 UTC 18 June 2019
Forecast type: BECOMING: Conditions expected to become as follows by 0000 UTC 19 June 2019
Winds: from the NNW (340 degrees) at 5 MPH (4 knots; 2.1 m/s)
Visibility: 4 miles (7 km)
Ceiling: 2000 feet AGL
Clouds: broken clouds at 2000 feet AGL
Weather: -TSRA  (light rain associated with thunderstorm(s))